Time,TemperatureF,DewpointF,PressureIn,WindDirection,WindDirectionDegrees,WindSpeedMPH,WindSpeedGustMPH,Humidity,HourlyPrecipIn,Conditions,Clouds,dailyrainin,SoftwareType,DateUTC
2013-02-09 00:04:00,22.8,20.1,29.89,NW,315,0.0,1.0,89,0.00,,,0.00,meteohub,2013-02-09 07:04:00,
2013-02-09 00:09:00,22.6,19.9,29.89,NW,313,0.0,2.0,89,0.00,,,0.00,meteohub,2013-02-09 07:09:00,
2013-02-09 00:14:00,22.6,19.9,29.88,NNW,335,0.0,2.0,89,0.00,,,0.00,meteohub,2013-02-09 07:14:00,
2013-02-09 00:19:00,22.5,19.8,29.88,NNW,330,1.0,2.0,89,0.00,,,0.00,meteohub,2013-02-09 07:19:00,
2013-02-09 00:24:00,22.5,19.9,29.88,NNW,329,1.0,2.0,90,0.00,,,0.00,meteohub,2013-02-09 07:24:00,
2013-02-09 00:30:00,22.5,19.9,29.88,WNW,296,1.0,3.0,90,0.00,,,0.00,meteohub,2013-02-09 07:30:00,
2013-02-09 00:35:00,22.3,19.8,29.88,NNW,335,2.0,3.0,90,0.00,,,0.00,meteohub,2013-02-09 07:35:00,
2013-02-09 00:40:00,22.1,19.6,29.88,NNW,333,2.0,4.0,90,0.00,,,0.00,meteohub,2013-02-09 07:40:00,
2013-02-09 00:45:00,21.9,19.4,29.88,NW,315,0.0,4.0,90,0.00,,,0.00,meteohub,2013-02-09 07:45:00,
2013-02-09 00:50:00,21.7,19.6,29.87,NW,318,0.0,3.0,91,0.00,,,0.00,meteohub,2013-02-09 07:50:00,
2013-02-09 00:55:00,21.7,19.8,29.87,NW,320,0.0,3.0,92,0.00,,,0.00,meteohub,2013-02-09 07:55:00,
2013-02-09 01:00:00,21.6,19.4,29.86,NW,320,0.0,3.0,91,0.00,,,0.00,meteohub,2013-02-09 08:00:00,
2013-02-09 01:05:00,21.6,19.6,29.86,NNW,342,2.0,3.0,92,0.00,,,0.00,meteohub,2013-02-09 08:05:00,
2013-02-09 01:10:00,21.6,19.6,29.86,NW,324,1.0,3.0,92,0.00,,,0.00,meteohub,2013-02-09 08:10:00,
2013-02-09 01:15:00,21.4,19.8,29.86,WNW,292,0.0,4.0,93,0.00,,,0.00,meteohub,2013-02-09 08:15:00,
2013-02-09 01:20:00,21.2,19.6,29.86,NNW,329,1.0,4.0,93,0.00,,,0.00,meteohub,2013-02-09 08:20:00,
2013-02-09 01:25:00,21.0,19.4,29.85,NW,321,2.0,4.0,93,0.00,,,0.00,meteohub,2013-02-09 08:25:00,
2013-02-09 01:30:00,20.8,19.2,29.85,NNW,330,2.0,3.0,93,0.00,,,0.00,meteohub,2013-02-09 08:30:00,
2013-02-09 01:36:00,20.8,19.2,29.85,SW,221,0.0,3.0,93,0.00,,,0.00,meteohub,2013-02-09 08:36:00,
2013-02-09 01:41:00,20.8,19.2,29.84,NNW,327,0.0,3.0,93,0.00,,,0.00,meteohub,2013-02-09 08:41:00,
2013-02-09 01:46:00,20.7,19.0,29.84,NW,319,0.0,3.0,93,0.00,,,0.00,meteohub,2013-02-09 08:46:00,
2013-02-09 01:51:00,20.8,19.4,29.84,NNW,330,0.0,2.0,94,0.00,,,0.00,meteohub,2013-02-09 08:51:00,
2013-02-09 01:56:00,20.7,19.2,29.84,WNW,299,1.0,2.0,94,0.00,,,0.00,meteohub,2013-02-09 08:56:00,
2013-02-09 02:01:00,20.5,19.0,29.84,West,271,0.0,2.0,94,0.00,,,0.00,meteohub,2013-02-09 09:01:00,
2013-02-09 02:06:00,20.3,18.9,29.83,WNW,284,0.0,2.0,94,0.00,,,0.00,meteohub,2013-02-09 09:06:00,
2013-02-09 02:11:00,20.3,18.9,29.83,SE,132,0.0,1.0,94,0.00,,,0.00,meteohub,2013-02-09 09:11:00,
2013-02-09 02:16:00,20.3,18.9,29.82,NW,305,1.0,2.0,94,0.00,,,0.00,meteohub,2013-02-09 09:16:00,
2013-02-09 02:21:00,20.1,18.7,29.82,West,280,0.0,2.0,94,0.00,,,0.00,meteohub,2013-02-09 09:21:00,
2013-02-09 02:26:00,20.1,18.9,29.82,NNW,333,0.0,2.0,95,0.00,,,0.00,meteohub,2013-02-09 09:26:00,
2013-02-09 02:31:00,20.1,18.7,29.81,NW,313,0.0,4.0,94,0.00,,,0.00,meteohub,2013-02-09 09:31:00,
2013-02-09 02:37:00,20.1,18.9,29.81,NW,315,0.0,4.0,95,0.00,,,0.00,meteohub,2013-02-09 09:37:00,
2013-02-09 02:42:00,20.3,19.0,29.81,NNW,336,0.0,4.0,95,0.00,,,0.00,meteohub,2013-02-09 09:42:00,
2013-02-09 02:47:00,20.3,19.0,29.80,NW,323,0.0,3.0,95,0.00,,,0.00,meteohub,2013-02-09 09:47:00,
2013-02-09 02:52:00,20.1,18.7,29.80,NNW,334,0.0,4.0,94,0.00,,,0.00,meteohub,2013-02-09 09:52:00,
2013-02-09 02:57:00,20.1,18.9,29.80,NW,319,1.0,4.0,95,0.00,,,0.00,meteohub,2013-02-09 09:57:00,
2013-02-09 03:02:00,20.1,18.9,29.80,NW,314,2.0,4.0,95,0.00,,,0.00,meteohub,2013-02-09 10:02:00,
2013-02-09 03:07:00,20.1,18.7,29.79,NW,319,1.0,4.0,94,0.00,,,0.00,meteohub,2013-02-09 10:07:00,
2013-02-09 03:12:00,19.9,18.5,29.78,NW,321,1.0,4.0,94,0.00,,,0.00,meteohub,2013-02-09 10:12:00,
2013-02-09 03:17:00,19.9,18.5,29.78,NW,320,1.0,4.0,94,0.00,,,0.00,meteohub,2013-02-09 10:17:00,
2013-02-09 03:22:00,19.9,18.5,29.78,WNW,291,1.0,4.0,94,0.00,,,0.00,meteohub,2013-02-09 10:22:00,
2013-02-09 03:27:00,19.8,18.3,29.78,NW,322,1.0,4.0,94,0.00,,,0.00,meteohub,2013-02-09 10:27:00,
2013-02-09 03:32:00,19.9,18.5,29.78,NW,314,0.0,4.0,94,0.00,,,0.00,meteohub,2013-02-09 10:32:00,
2013-02-09 03:37:00,19.9,18.5,29.78,West,270,0.0,3.0,94,0.00,,,0.00,meteohub,2013-02-09 10:37:00,
2013-02-09 03:42:00,19.8,18.1,29.77,NNW,336,2.0,4.0,93,0.00,,,0.00,meteohub,2013-02-09 10:42:00,
2013-02-09 03:47:00,19.8,18.1,29.77,NW,324,2.0,4.0,93,0.00,,,0.00,meteohub,2013-02-09 10:47:00,
2013-02-09 03:52:00,19.6,18.0,29.77,NW,309,2.0,3.0,93,0.00,,,0.00,meteohub,2013-02-09 10:52:00,
2013-02-09 03:57:00,19.6,18.0,29.76,West,269,1.0,5.0,93,0.00,,,0.00,meteohub,2013-02-09 10:57:00,
2013-02-09 04:02:00,19.2,17.6,29.75,West,269,0.0,5.0,93,0.00,,,0.00,meteohub,2013-02-09 11:02:00,
2013-02-09 04:07:00,19.2,17.6,29.75,NW,306,1.0,3.0,93,0.00,,,0.00,meteohub,2013-02-09 11:07:00,
2013-02-09 04:12:00,19.4,17.8,29.75,NW,307,0.0,2.0,93,0.00,,,0.00,meteohub,2013-02-09 11:12:00,
2013-02-09 04:17:00,19.8,17.6,29.75,East,101,0.0,5.0,91,0.00,,,0.00,meteohub,2013-02-09 11:17:00,
2013-02-09 04:22:00,19.8,17.2,29.75,WNW,285,0.0,5.0,90,0.00,,,0.00,meteohub,2013-02-09 11:22:00,
2013-02-09 04:27:00,19.4,16.9,29.74,WNW,299,1.0,5.0,90,0.00,,,0.00,meteohub,2013-02-09 11:27:00,
2013-02-09 04:32:00,19.2,17.1,29.74,WNW,299,0.0,2.0,91,0.00,,,0.00,meteohub,2013-02-09 11:32:00,
2013-02-09 04:37:00,19.2,17.1,29.74,NW,317,1.0,2.0,91,0.00,,,0.00,meteohub,2013-02-09 11:37:00,
2013-02-09 04:42:00,19.2,16.5,29.74,NW,326,2.0,3.0,89,0.00,,,0.00,meteohub,2013-02-09 11:42:00,
2013-02-09 04:47:00,19.2,16.5,29.74,NW,310,0.0,3.0,89,0.00,,,0.00,meteohub,2013-02-09 11:47:00,
2013-02-09 04:52:00,19.2,16.5,29.73,NW,325,0.0,3.0,89,0.00,,,0.00,meteohub,2013-02-09 11:52:00,
2013-02-09 04:57:00,19.2,16.0,29.73,NW,324,0.0,3.0,87,0.00,,,0.00,meteohub,2013-02-09 11:57:00,
2013-02-09 05:02:00,19.2,15.8,29.73,NW,309,2.0,3.0,86,0.00,,,0.00,meteohub,2013-02-09 12:02:00,
2013-02-09 05:07:00,19.2,16.7,29.73,NNW,336,1.0,3.0,90,0.00,,,0.00,meteohub,2013-02-09 12:07:00,
2013-02-09 05:12:00,18.9,16.0,29.73,NNW,336,0.0,3.0,88,0.00,,,0.00,meteohub,2013-02-09 12:12:00,
2013-02-09 05:17:00,19.4,11.5,29.73,NNE,27,1.0,3.0,71,0.00,,,0.00,meteohub,2013-02-09 12:17:00,
2013-02-09 05:22:00,21.0,9.7,29.72,ESE,115,2.0,3.0,61,0.00,,,0.00,meteohub,2013-02-09 12:22:00,
2013-02-09 05:27:00,22.3,8.6,29.73,ESE,113,1.0,3.0,55,0.00,,,0.00,meteohub,2013-02-09 12:27:00,
2013-02-09 05:32:00,22.6,7.7,29.72,ESE,105,1.0,3.0,52,0.00,,,0.00,meteohub,2013-02-09 12:32:00,
2013-02-09 05:37:00,22.6,7.7,29.72,ESE,110,1.0,3.0,52,0.00,,,0.00,meteohub,2013-02-09 12:37:00,
2013-02-09 05:42:00,23.2,6.8,29.73,ESE,113,2.0,3.0,49,0.00,,,0.00,meteohub,2013-02-09 12:42:00,
2013-02-09 05:47:00,23.5,6.3,29.72,ESE,115,2.0,4.0,47,0.00,,,0.00,meteohub,2013-02-09 12:47:00,
2013-02-09 05:52:00,23.7,6.4,29.72,ESE,105,2.0,4.0,47,0.00,,,0.00,meteohub,2013-02-09 12:52:00,
2013-02-09 05:57:00,23.7,5.9,29.72,ESE,113,2.0,4.0,46,0.00,,,0.00,meteohub,2013-02-09 12:57:00,
2013-02-09 06:02:00,23.7,5.5,29.72,ESE,116,2.0,4.0,45,0.00,,,0.00,meteohub,2013-02-09 13:02:00,
2013-02-09 06:07:00,23.7,5.5,29.72,ESE,115,3.0,4.0,45,0.00,,,0.00,meteohub,2013-02-09 13:07:00,
2013-02-09 06:12:00,23.7,5.0,29.71,ESE,113,2.0,4.0,44,0.00,,,0.00,meteohub,2013-02-09 13:12:00,
2013-02-09 06:17:00,23.7,4.5,29.71,ESE,113,3.0,4.0,43,0.00,,,0.00,meteohub,2013-02-09 13:17:00,
2013-02-09 06:22:00,23.7,4.5,29.71,ESE,103,3.0,4.0,43,0.00,,,0.00,meteohub,2013-02-09 13:22:00,
2013-02-09 06:27:00,23.7,4.5,29.71,ESE,105,3.0,4.0,43,0.00,,,0.00,meteohub,2013-02-09 13:27:00,
2013-02-09 06:32:00,23.7,4.5,29.71,ESE,108,3.0,4.0,43,0.00,,,0.00,meteohub,2013-02-09 13:32:00,
2013-02-09 06:37:00,23.5,3.7,29.70,ESE,112,3.0,5.0,42,0.00,,,0.00,meteohub,2013-02-09 13:37:00,
2013-02-09 06:42:00,23.5,4.3,29.70,ESE,122,5.0,5.0,43,0.00,,,0.00,meteohub,2013-02-09 13:42:00,
2013-02-09 06:47:00,23.5,3.7,29.70,ESE,117,4.0,6.0,42,0.00,,,0.00,meteohub,2013-02-09 13:47:00,
2013-02-09 06:52:00,23.5,3.7,29.70,SE,125,3.0,6.0,42,0.00,,,0.00,meteohub,2013-02-09 13:52:00,
2013-02-09 06:57:00,23.4,3.6,29.70,ESE,117,4.0,6.0,42,0.00,,,0.00,meteohub,2013-02-09 13:57:00,
2013-02-09 07:02:00,23.5,4.3,29.70,ESE,113,4.0,5.0,43,0.00,,,0.00,meteohub,2013-02-09 14:02:00,
2013-02-09 07:07:00,23.4,4.6,29.70,ESE,108,4.0,6.0,44,0.00,,,0.00,meteohub,2013-02-09 14:07:00,
2013-02-09 07:12:00,23.5,4.8,29.70,ESE,106,5.0,6.0,44,0.00,,,0.00,meteohub,2013-02-09 14:12:00,
2013-02-09 07:17:00,23.5,4.8,29.69,ESE,113,4.0,6.0,44,0.00,,,0.00,meteohub,2013-02-09 14:17:00,
2013-02-09 07:22:00,23.5,4.8,29.69,ESE,110,5.0,6.0,44,0.00,,,0.00,meteohub,2013-02-09 14:22:00,
2013-02-09 07:27:00,23.7,5.5,29.69,ESE,113,4.0,6.0,45,0.00,,,0.00,meteohub,2013-02-09 14:27:00,
2013-02-09 07:32:00,24.1,5.4,29.69,ESE,115,4.0,6.0,44,0.00,,,0.00,meteohub,2013-02-09 14:32:00,
2013-02-09 07:37:00,24.3,5.5,29.69,East,98,4.0,6.0,44,0.00,,,0.00,meteohub,2013-02-09 14:37:00,
2013-02-09 07:42:00,24.6,5.9,29.68,ESE,115,4.0,7.0,44,0.00,,,0.00,meteohub,2013-02-09 14:42:00,
2013-02-09 07:47:00,24.8,5.9,29.68,SE,127,3.0,7.0,44,0.00,,,0.00,meteohub,2013-02-09 14:47:00,
2013-02-09 07:52:00,25.2,6.3,29.68,ESE,113,4.0,6.0,44,0.00,,,0.00,meteohub,2013-02-09 14:52:00,
2013-02-09 07:57:00,25.3,5.9,29.68,SE,126,2.0,6.0,43,0.00,,,0.00,meteohub,2013-02-09 14:57:00,
2013-02-09 08:02:00,25.7,6.3,29.68,ESE,110,4.0,6.0,43,0.00,,,0.00,meteohub,2013-02-09 15:02:00,
2013-02-09 08:07:00,25.9,6.4,29.68,ESE,119,5.0,6.0,43,0.00,,,0.00,meteohub,2013-02-09 15:07:00,
2013-02-09 08:12:00,26.2,6.8,29.67,East,89,3.0,6.0,43,0.00,,,0.00,meteohub,2013-02-09 15:12:00,
2013-02-09 08:17:00,26.4,6.4,29.67,ESE,117,4.0,7.0,42,0.00,,,0.00,meteohub,2013-02-09 15:17:00,
2013-02-09 08:22:00,26.8,6.8,29.66,ESE,113,4.0,7.0,42,0.00,,,0.00,meteohub,2013-02-09 15:22:00,
2013-02-09 08:27:00,27.1,7.2,29.66,East,101,3.0,7.0,42,0.00,,,0.00,meteohub,2013-02-09 15:27:00,
2013-02-09 08:32:00,27.3,7.2,29.66,ESE,122,3.0,6.0,42,0.00,,,0.00,meteohub,2013-02-09 15:32:00,
2013-02-09 08:37:00,27.7,7.0,29.66,SE,125,4.0,5.0,41,0.00,,,0.00,meteohub,2013-02-09 15:37:00,
2013-02-09 08:42:00,27.7,7.0,29.66,ESE,118,3.0,6.0,41,0.00,,,0.00,meteohub,2013-02-09 15:42:00,
2013-02-09 08:47:00,28.0,7.3,29.66,ESE,112,1.0,6.0,41,0.00,,,0.00,meteohub,2013-02-09 15:47:00,
2013-02-09 08:52:00,28.4,7.2,29.65,ESE,105,3.0,6.0,40,0.00,,,0.00,meteohub,2013-02-09 15:52:00,
2013-02-09 08:57:00,28.6,6.3,29.64,East,91,1.0,6.0,38,0.00,,,0.00,meteohub,2013-02-09 15:57:00,
2013-02-09 09:02:00,28.9,5.9,29.65,SE,130,4.0,6.0,37,0.00,,,0.00,meteohub,2013-02-09 16:02:00,
2013-02-09 09:07:00,29.5,5.2,29.64,SE,129,3.0,6.0,35,0.00,,,0.00,meteohub,2013-02-09 16:07:00,
2013-02-09 09:12:00,29.8,2.1,29.63,ESE,120,5.0,10.0,30,0.00,,,0.00,meteohub,2013-02-09 16:12:00,
2013-02-09 09:17:00,30.4,2.7,29.62,ESE,113,5.0,11.0,30,0.00,,,0.00,meteohub,2013-02-09 16:17:00,
2013-02-09 09:22:00,30.7,0.7,29.62,ESE,110,5.0,11.0,27,0.00,,,0.00,meteohub,2013-02-09 16:22:00,
2013-02-09 09:28:00,31.3,1.2,29.62,ESE,115,9.0,13.0,27,0.00,,,0.00,meteohub,2013-02-09 16:28:00,
2013-02-09 09:33:00,31.5,-0.4,29.61,ESE,117,7.0,13.0,25,0.00,,,0.00,meteohub,2013-02-09 16:33:00,
2013-02-09 09:38:00,31.8,1.6,29.61,NE,53,7.0,13.0,27,0.00,,,0.00,meteohub,2013-02-09 16:38:00,
2013-02-09 09:43:00,31.6,-0.2,29.60,East,100,9.0,12.0,25,0.00,,,0.00,meteohub,2013-02-09 16:43:00,
2013-02-09 09:48:00,31.8,0.9,29.60,ESE,118,6.0,15.0,26,0.00,,,0.00,meteohub,2013-02-09 16:48:00,
2013-02-09 09:53:00,31.8,0.0,29.60,ESE,106,5.0,15.0,25,0.00,,,0.00,meteohub,2013-02-09 16:53:00,
2013-02-09 09:58:00,32.0,1.8,29.60,SSE,151,4.0,14.0,27,0.00,,,0.00,meteohub,2013-02-09 16:58:00,
2013-02-09 10:03:00,32.4,2.1,29.60,ENE,78,3.0,13.0,27,0.00,,,0.00,meteohub,2013-02-09 17:03:00,
2013-02-09 10:08:00,32.2,2.7,29.59,NNE,23,2.0,11.0,28,0.00,,,0.00,meteohub,2013-02-09 17:08:00,
2013-02-09 10:13:00,32.2,2.7,29.59,ESE,117,4.0,12.0,28,0.00,,,0.00,meteohub,2013-02-09 17:13:00,
2013-02-09 10:19:00,32.5,3.7,29.59,East,89,2.0,12.0,29,0.00,,,0.00,meteohub,2013-02-09 17:19:00,
2013-02-09 10:24:00,32.5,3.7,29.57,WSW,247,4.0,12.0,29,0.00,,,0.00,meteohub,2013-02-09 17:24:00,
2013-02-09 10:29:00,33.1,4.3,29.57,East,101,5.0,9.0,29,0.00,,,0.00,meteohub,2013-02-09 17:29:00,
2013-02-09 10:34:00,33.6,3.2,29.57,ESE,122,4.0,9.0,27,0.00,,,0.00,meteohub,2013-02-09 17:34:00,
2013-02-09 10:39:00,33.6,4.8,29.57,ESE,108,7.0,9.0,29,0.00,,,0.00,meteohub,2013-02-09 17:39:00,
2013-02-09 10:44:00,34.0,3.6,29.57,SE,143,2.0,10.0,27,0.00,,,0.00,meteohub,2013-02-09 17:44:00,
2013-02-09 10:49:00,33.4,2.3,29.56,SE,130,6.0,11.0,26,0.00,,,0.00,meteohub,2013-02-09 17:49:00,
2013-02-09 10:54:00,32.4,2.1,29.56,SE,142,9.0,13.0,27,0.00,,,0.00,meteohub,2013-02-09 17:54:00,
2013-02-09 10:59:00,31.3,0.3,29.55,ESE,110,10.0,13.0,26,0.00,,,0.00,meteohub,2013-02-09 17:59:00,
2013-02-09 11:05:00,30.6,1.4,29.55,ESE,117,7.0,16.0,28,0.00,,,0.00,meteohub,2013-02-09 18:05:00,
2013-02-09 11:10:00,30.2,1.8,29.54,SE,143,3.0,16.0,29,0.00,,,0.00,meteohub,2013-02-09 18:10:00,
2013-02-09 11:15:00,30.0,2.3,29.54,ESE,120,10.0,16.0,30,0.00,,,0.00,meteohub,2013-02-09 18:15:00,
2013-02-09 11:20:00,29.7,2.7,29.54,ESE,113,15.0,19.0,31,0.00,,,0.00,meteohub,2013-02-09 18:20:00,
2013-02-09 11:25:00,29.1,2.8,29.54,SE,126,6.0,20.0,32,0.00,,,0.00,meteohub,2013-02-09 18:25:00,
2013-02-09 11:30:00,29.1,2.8,29.54,ESE,105,7.0,20.0,32,0.00,,,0.00,meteohub,2013-02-09 18:30:00,
2013-02-09 11:35:00,28.9,2.8,29.53,ESE,120,9.0,19.0,32,0.00,,,0.00,meteohub,2013-02-09 18:35:00,
2013-02-09 11:40:00,28.8,5.2,29.55,ESE,120,3.0,19.0,36,0.00,,,0.00,meteohub,2013-02-09 18:40:00,
2013-02-09 11:45:00,28.8,6.3,29.54,SE,124,7.0,19.0,38,0.00,,,0.00,meteohub,2013-02-09 18:45:00,
2013-02-09 11:50:00,28.4,7.2,29.54,ESE,108,8.0,20.0,40,0.00,,,0.00,meteohub,2013-02-09 18:50:00,
2013-02-09 11:56:00,28.2,6.4,29.54,SE,131,4.0,20.0,39,0.00,,,0.00,meteohub,2013-02-09 18:56:00,
2013-02-09 12:01:00,28.2,7.5,29.54,East,82,4.0,20.0,41,0.00,,,0.00,meteohub,2013-02-09 19:01:00,
2013-02-09 12:06:00,28.0,6.3,29.53,ESE,112,10.0,14.0,39,0.00,,,0.00,meteohub,2013-02-09 19:06:00,
2013-02-09 12:11:00,28.0,6.3,29.53,ESE,119,4.0,13.0,39,0.00,,,0.00,meteohub,2013-02-09 19:11:00,
2013-02-09 12:16:00,28.2,7.0,29.52,SE,129,5.0,13.0,40,0.00,,,0.00,meteohub,2013-02-09 19:16:00,
2013-02-09 12:21:00,28.2,8.1,29.52,ESE,122,10.0,11.0,42,0.00,,,0.00,meteohub,2013-02-09 19:21:00,
2013-02-09 12:26:00,27.9,8.2,29.52,East,94,9.0,16.0,43,0.00,,,0.00,meteohub,2013-02-09 19:26:00,
2013-02-09 12:31:00,27.5,8.4,29.52,ESE,108,5.0,16.0,44,0.00,,,0.00,meteohub,2013-02-09 19:31:00,
2013-02-09 12:36:00,27.7,8.6,29.51,SE,133,5.0,16.0,44,0.00,,,0.00,meteohub,2013-02-09 19:36:00,
2013-02-09 12:41:00,27.5,7.9,29.52,ESE,117,8.0,16.0,43,0.00,,,0.00,meteohub,2013-02-09 19:41:00,
2013-02-09 12:46:00,27.5,9.0,29.52,ESE,110,8.0,16.0,45,0.00,,,0.00,meteohub,2013-02-09 19:46:00,
2013-02-09 12:52:00,27.0,10.4,29.52,ESE,122,6.0,16.0,49,0.00,,,0.00,meteohub,2013-02-09 19:52:00,
2013-02-09 12:57:00,27.0,11.3,29.52,South,179,4.0,12.0,51,0.00,,,0.00,meteohub,2013-02-09 19:57:00,
2013-02-09 13:02:00,25.5,14.0,29.52,ESE,103,10.0,13.0,61,0.00,,,0.00,meteohub,2013-02-09 20:02:00,
2013-02-09 13:07:00,24.1,15.8,29.52,ESE,103,11.0,17.0,70,0.00,,,0.00,meteohub,2013-02-09 20:07:00,
2013-02-09 13:12:00,22.8,17.1,29.52,East,101,3.0,17.0,78,0.00,,,0.00,meteohub,2013-02-09 20:12:00,
2013-02-09 13:17:00,22.5,16.9,29.52,North,356,5.0,16.0,79,0.00,,,0.00,meteohub,2013-02-09 20:17:00,
2013-02-09 13:22:00,22.8,16.3,29.52,SE,124,4.0,15.0,76,0.00,,,0.00,meteohub,2013-02-09 20:22:00,
2013-02-09 13:27:00,22.8,16.7,29.52,NW,315,2.0,14.0,77,0.00,,,0.00,meteohub,2013-02-09 20:27:00,
2013-02-09 13:32:00,22.5,17.2,29.52,East,97,3.0,14.0,80,0.00,,,0.00,meteohub,2013-02-09 20:32:00,
2013-02-09 13:37:00,21.7,17.6,29.52,SSE,147,8.0,14.0,84,0.00,,,0.00,meteohub,2013-02-09 20:37:00,
2013-02-09 15:31:00,17.1,14.2,29.55,SE,129,4.0,15.0,88,0.00,,,0.00,meteohub,2013-02-09 22:31:00,
2013-02-09 15:36:00,16.9,14.2,29.55,SSE,149,11.0,15.0,89,0.00,,,0.00,meteohub,2013-02-09 22:36:00,
2013-02-09 15:42:00,16.3,13.5,29.56,SSW,197,16.0,16.0,88,0.00,,,0.00,meteohub,2013-02-09 22:42:00,
2013-02-09 15:47:00,16.2,13.5,29.56,SE,127,6.0,16.0,89,0.00,,,0.00,meteohub,2013-02-09 22:47:00,
2013-02-09 15:52:00,15.8,13.1,29.57,ESE,115,9.0,17.0,89,0.00,,,0.00,meteohub,2013-02-09 22:52:00,
2013-02-09 15:57:00,15.4,12.6,29.57,SE,126,9.0,17.0,88,0.00,,,0.00,meteohub,2013-02-09 22:57:00,
2013-02-09 16:02:00,15.1,12.2,29.57,SE,129,4.0,17.0,88,0.00,,,0.00,meteohub,2013-02-09 23:02:00,
2013-02-09 16:07:00,15.1,12.2,29.57,ESE,103,9.0,16.0,88,0.00,,,0.00,meteohub,2013-02-09 23:07:00,
2013-02-09 16:12:00,15.1,11.7,29.57,SSE,162,2.0,16.0,86,0.00,,,0.00,meteohub,2013-02-09 23:12:00,
2013-02-09 16:17:00,15.3,11.8,29.57,ESE,119,10.0,16.0,86,0.00,,,0.00,meteohub,2013-02-09 23:17:00,
2013-02-09 16:22:00,15.1,11.5,29.57,SW,218,5.0,16.0,85,0.00,,,0.00,meteohub,2013-02-09 23:22:00,
2013-02-09 16:27:00,14.9,11.7,29.58,ESE,102,10.0,16.0,87,0.00,,,0.00,meteohub,2013-02-09 23:27:00,
2013-02-09 16:33:00,14.7,11.8,29.58,East,88,4.0,16.0,88,0.00,,,0.00,meteohub,2013-02-09 23:33:00,
2013-02-09 16:38:00,14.7,11.8,29.58,ESE,115,5.0,16.0,88,0.00,,,0.00,meteohub,2013-02-09 23:38:00,
2013-02-09 16:44:00,14.7,11.8,29.58,SE,143,9.0,13.0,88,0.00,,,0.00,meteohub,2013-02-09 23:44:00,
2013-02-09 16:49:00,14.4,11.7,29.58,SSE,152,7.0,17.0,89,0.00,,,0.00,meteohub,2013-02-09 23:49:00,
2013-02-09 16:54:00,14.2,11.5,29.57,WSW,238,6.0,17.0,89,0.00,,,0.00,meteohub,2013-02-09 23:54:00,
2013-02-09 16:59:00,13.8,10.9,29.58,SW,224,11.0,17.0,88,0.00,,,0.00,meteohub,2013-02-09 23:59:00,
2013-02-09 17:05:00,13.5,10.6,29.59,South,184,12.0,18.0,88,0.00,,,0.00,meteohub,2013-02-10 00:05:00,
2013-02-09 17:10:00,13.3,10.6,29.59,SSW,207,5.0,26.0,89,0.00,,,0.00,meteohub,2013-02-10 00:10:00,
2013-02-09 17:15:00,13.3,10.4,29.59,ESE,113,5.0,26.0,88,0.00,,,0.00,meteohub,2013-02-10 00:15:00,
2013-02-09 17:20:00,13.5,10.4,29.60,SE,146,4.0,26.0,87,0.00,,,0.00,meteohub,2013-02-10 00:20:00,
2013-02-09 17:26:00,13.5,10.0,29.60,SSE,157,10.0,16.0,86,0.00,,,0.00,meteohub,2013-02-10 00:26:00,
2013-02-09 17:31:00,13.5,9.9,29.60,East,101,5.0,18.0,85,0.00,,,0.00,meteohub,2013-02-10 00:31:00,
2013-02-09 17:36:00,13.5,9.9,29.60,SSW,210,2.0,18.0,85,0.00,,,0.00,meteohub,2013-02-10 00:36:00,
2013-02-09 17:42:00,13.5,9.3,29.59,SSW,200,7.0,18.0,83,0.00,,,0.00,meteohub,2013-02-10 00:42:00,
2013-02-09 17:47:00,13.6,9.5,29.60,ESE,103,6.0,16.0,83,0.00,,,0.00,meteohub,2013-02-10 00:47:00,
2013-02-09 17:52:00,13.5,9.5,29.59,West,269,2.0,16.0,84,0.00,,,0.00,meteohub,2013-02-10 00:52:00,
2013-02-09 17:57:00,13.5,9.5,29.58,SE,127,4.0,16.0,84,0.00,,,0.00,meteohub,2013-02-10 00:57:00,
2013-02-09 18:03:00,13.5,10.4,29.59,SE,139,6.0,11.0,87,0.00,,,0.00,meteohub,2013-02-10 01:03:00,
2013-02-09 18:08:00,13.5,10.4,29.59,SSW,203,2.0,11.0,87,0.00,,,0.00,meteohub,2013-02-10 01:08:00,
2013-02-09 18:13:00,13.5,10.0,29.59,East,79,9.0,11.0,86,0.00,,,0.00,meteohub,2013-02-10 01:13:00,
2013-02-09 18:19:00,13.5,10.0,29.60,ESE,103,10.0,14.0,86,0.00,,,0.00,meteohub,2013-02-10 01:19:00,
2013-02-09 18:24:00,13.5,10.0,29.59,West,278,3.0,14.0,86,0.00,,,0.00,meteohub,2013-02-10 01:24:00,
2013-02-09 18:29:00,13.3,9.9,29.59,WNW,288,6.0,14.0,86,0.00,,,0.00,meteohub,2013-02-10 01:29:00,
2013-02-09 18:34:00,13.3,10.2,29.58,East,84,12.0,13.0,87,0.00,,,0.00,meteohub,2013-02-10 01:34:00,
2013-02-09 18:40:00,13.1,10.2,29.60,East,84,13.0,19.0,88,0.00,,,0.00,meteohub,2013-02-10 01:40:00,
2013-02-09 18:45:00,13.1,10.2,29.60,ESE,115,14.0,20.0,88,0.00,,,0.00,meteohub,2013-02-10 01:45:00,
2013-02-09 18:50:00,13.1,10.0,29.60,ESE,110,2.0,20.0,87,0.00,,,0.00,meteohub,2013-02-10 01:50:00,
2013-02-09 18:55:00,12.9,9.9,29.60,SE,129,0.0,20.0,87,0.00,,,0.00,meteohub,2013-02-10 01:55:00,
2013-02-09 19:01:00,12.9,9.9,29.61,SE,129,4.0,20.0,87,0.00,,,0.00,meteohub,2013-02-10 02:01:00,
2013-02-09 19:06:00,12.9,9.9,29.61,South,181,4.0,16.0,87,0.00,,,0.00,meteohub,2013-02-10 02:06:00,
2013-02-09 19:12:00,12.9,9.9,29.62,SW,222,4.0,20.0,87,0.00,,,0.00,meteohub,2013-02-10 02:12:00,
2013-02-09 19:17:00,13.1,10.0,29.61,ESE,109,4.0,20.0,87,0.00,,,0.00,meteohub,2013-02-10 02:17:00,
2013-02-09 19:22:00,12.9,10.0,29.61,ESE,123,4.0,21.0,88,0.00,,,0.00,meteohub,2013-02-10 02:22:00,
2013-02-09 19:27:00,12.9,10.0,29.61,SW,214,4.0,21.0,88,0.00,,,0.00,meteohub,2013-02-10 02:27:00,
2013-02-09 19:32:00,12.9,10.2,29.61,SE,126,4.0,14.0,89,0.00,,,0.00,meteohub,2013-02-10 02:32:00,
2013-02-09 19:37:00,12.9,10.2,29.62,East,96,3.0,19.0,89,0.00,,,0.00,meteohub,2013-02-10 02:37:00,
2013-02-09 19:42:00,12.9,10.0,29.61,SSE,160,3.0,19.0,88,0.00,,,0.00,meteohub,2013-02-10 02:42:00,
2013-02-09 19:47:00,12.9,10.0,29.61,SSE,153,10.0,19.0,88,0.00,,,0.00,meteohub,2013-02-10 02:47:00,
2013-02-09 19:52:00,12.9,10.0,29.61,SSE,155,4.0,15.0,88,0.00,,,0.00,meteohub,2013-02-10 02:52:00,
2013-02-09 19:57:00,12.9,10.0,29.62,SSE,148,3.0,15.0,88,0.00,,,0.00,meteohub,2013-02-10 02:57:00,
2013-02-09 20:02:00,12.9,10.0,29.62,SE,130,4.0,15.0,88,0.00,,,0.00,meteohub,2013-02-10 03:02:00,
2013-02-09 20:07:00,13.1,10.2,29.63,East,101,6.0,15.0,88,0.00,,,0.00,meteohub,2013-02-10 03:07:00,
2013-02-09 20:12:00,13.1,10.2,29.63,South,176,7.0,15.0,88,0.00,,,0.00,meteohub,2013-02-10 03:12:00,
2013-02-09 20:17:00,12.9,10.2,29.63,ESE,122,11.0,15.0,89,0.00,,,0.00,meteohub,2013-02-10 03:17:00,
2013-02-09 20:22:00,12.9,10.2,29.63,NW,322,4.0,15.0,89,0.00,,,0.00,meteohub,2013-02-10 03:22:00,
2013-02-09 20:28:00,12.9,10.2,29.63,East,94,14.0,15.0,89,0.00,,,0.00,meteohub,2013-02-10 03:28:00,
2013-02-09 20:33:00,12.9,10.2,29.63,ESE,108,9.0,17.0,89,0.00,,,0.00,meteohub,2013-02-10 03:33:00,
2013-02-09 20:38:00,12.9,10.2,29.63,South,176,6.0,17.0,89,0.00,,,0.00,meteohub,2013-02-10 03:38:00,
2013-02-09 20:44:00,12.9,10.2,29.62,SSW,204,14.0,17.0,89,0.00,,,0.00,meteohub,2013-02-10 03:44:00,
2013-02-09 20:49:00,12.9,10.2,29.60,ESE,113,6.0,17.0,89,0.00,,,0.00,meteohub,2013-02-10 03:49:00,
2013-02-09 20:54:00,12.9,10.2,29.59,SSE,163,11.0,17.0,89,0.00,,,0.00,meteohub,2013-02-10 03:54:00,
2013-02-09 20:59:00,12.9,10.2,29.59,SE,129,6.0,24.0,89,0.00,,,0.00,meteohub,2013-02-10 03:59:00,
2013-02-09 21:05:00,12.9,10.2,29.59,South,182,12.0,28.0,89,0.00,,,0.00,meteohub,2013-02-10 04:05:00,
2013-02-09 21:10:00,12.9,10.2,29.59,SE,140,7.0,32.0,89,0.00,,,0.00,meteohub,2013-02-10 04:10:00,
2013-02-09 21:15:00,12.7,10.0,29.60,SSE,159,5.0,32.0,89,0.00,,,0.00,meteohub,2013-02-10 04:15:00,
2013-02-09 21:21:00,12.7,10.0,29.60,ESE,115,12.0,21.0,89,0.00,,,0.00,meteohub,2013-02-10 04:21:00,
2013-02-09 21:26:00,12.7,10.0,29.62,West,277,12.0,22.0,89,0.00,,,0.00,meteohub,2013-02-10 04:26:00,
2013-02-09 21:31:00,12.7,10.0,29.63,ESE,118,10.0,22.0,89,0.00,,,0.00,meteohub,2013-02-10 04:31:00,
2013-02-09 21:36:00,12.6,9.9,29.64,East,93,7.0,22.0,89,0.00,,,0.00,meteohub,2013-02-10 04:36:00,
2013-02-09 21:42:00,12.6,9.9,29.64,SSE,155,2.0,22.0,89,0.00,,,0.00,meteohub,2013-02-10 04:42:00,
2013-02-09 21:47:00,12.6,9.7,29.64,ESE,108,4.0,20.0,88,0.00,,,0.00,meteohub,2013-02-10 04:47:00,
2013-02-09 21:52:00,12.6,9.9,29.65,SE,136,2.0,20.0,89,0.00,,,0.00,meteohub,2013-02-10 04:52:00,
2013-02-09 21:57:00,12.6,9.9,29.66,SE,139,1.0,19.0,89,0.00,,,0.00,meteohub,2013-02-10 04:57:00,
2013-02-09 22:00:00,12.6,9.9,29.66,East,99,2.0,19.0,89,0.00,,,0.00,meteohub,2013-02-10 05:00:00,
2013-02-09 22:01:00,12.6,9.9,29.66,ESE,103,4.0,19.0,89,0.00,,,0.00,meteohub,2013-02-10 05:01:00,
2013-02-09 22:06:00,12.6,9.9,29.67,SW,218,2.0,13.0,89,0.00,,,0.00,meteohub,2013-02-10 05:06:00,
2013-02-09 22:12:00,12.6,9.9,29.67,SE,146,3.0,13.0,89,0.00,,,0.00,meteohub,2013-02-10 05:12:00,
2013-02-09 22:17:00,12.6,9.9,29.67,SE,133,7.0,14.0,89,0.00,,,0.00,meteohub,2013-02-10 05:17:00,
2013-02-09 22:22:00,12.6,9.9,29.68,SE,135,7.0,14.0,89,0.00,,,0.00,meteohub,2013-02-10 05:22:00,
2013-02-09 22:27:00,12.7,10.0,29.68,SSE,160,5.0,14.0,89,0.00,,,0.00,meteohub,2013-02-10 05:27:00,
2013-02-09 22:32:00,12.7,10.0,29.68,SSE,166,4.0,13.0,89,0.00,,,0.00,meteohub,2013-02-10 05:32:00,
2013-02-09 22:37:00,12.7,10.0,29.68,SE,146,8.0,13.0,89,0.00,,,0.00,meteohub,2013-02-10 05:37:00,
2013-02-09 22:42:00,12.7,10.4,29.68,SE,130,6.0,13.0,90,0.00,,,0.00,meteohub,2013-02-10 05:42:00,
2013-02-09 22:47:00,12.7,10.4,29.68,SE,129,7.0,13.0,90,0.00,,,0.00,meteohub,2013-02-10 05:47:00,
2013-02-09 22:52:00,12.7,10.4,29.68,SSW,193,3.0,15.0,90,0.00,,,0.00,meteohub,2013-02-10 05:52:00,
2013-02-09 22:57:00,12.7,10.4,29.68,SE,126,7.0,15.0,90,0.00,,,0.00,meteohub,2013-02-10 05:57:00,
2013-02-09 23:02:00,12.9,10.6,29.68,South,174,9.0,15.0,90,0.00,,,0.00,meteohub,2013-02-10 06:02:00,
2013-02-09 23:07:00,12.9,10.6,29.69,South,176,7.0,28.0,90,0.00,,,0.00,meteohub,2013-02-10 06:07:00,
2013-02-09 23:12:00,12.9,10.6,29.69,ESE,114,6.0,28.0,90,0.00,,,0.00,meteohub,2013-02-10 06:12:00,
2013-02-09 23:17:00,12.9,10.6,29.69,South,188,7.0,19.0,90,0.00,,,0.00,meteohub,2013-02-10 06:17:00,
2013-02-09 23:22:00,13.1,10.8,29.70,ESE,117,12.0,15.0,90,0.00,,,0.00,meteohub,2013-02-10 06:22:00,
2013-02-09 23:27:00,13.1,10.8,29.70,ESE,115,10.0,15.0,90,0.00,,,0.00,meteohub,2013-02-10 06:27:00,
2013-02-09 23:32:00,13.3,10.6,29.70,ESE,105,9.0,22.0,89,0.00,,,0.00,meteohub,2013-02-10 06:32:00,
2013-02-09 23:37:00,13.3,10.6,29.70,SE,125,7.0,22.0,89,0.00,,,0.00,meteohub,2013-02-10 06:37:00,
2013-02-09 23:42:00,13.3,10.9,29.70,SSE,148,6.0,22.0,90,0.00,,,0.00,meteohub,2013-02-10 06:42:00,
2013-02-09 23:47:00,13.3,10.6,29.71,SE,139,8.0,18.0,89,0.00,,,0.00,meteohub,2013-02-10 06:47:00,
2013-02-09 23:52:00,13.3,10.6,29.71,SSE,150,8.0,18.0,89,0.00,,,0.00,meteohub,2013-02-10 06:52:00,
2013-02-09 23:57:00,13.3,10.9,29.71,ESE,103,9.0,18.0,90,0.00,,,0.00,meteohub,2013-02-10 06:57:00,